APRS [IN73BJ], 0 Stunde(n), DL3EL [15:06:30, 0s].
ED1ZAU 43.23.04N 005.52.75WIN73BJ 1.358km 195°SSW13:03:45ZRD625 438.5000/430.9000 CC1
EA1YR 43.22.09N 005.51.86WIN73BI 3.169km 164°SSE13:03:37ZMMDVM DVS 434.3500/434.3500 CC1
33D00 43.21.63N 005.51.13WIN73BI 4.337km 155°SSE13:02:20Z33-D-00 Protección Civil REMER / Delegación del Gobierno en Asturias
EA1JAY 43.21.54N 005.51.34WIN73BI 4.375km 159°SSE12:30:17Z434.525MHz Nodo TETRA DMO(3EA1JAY-4)
LEHU 43.22.63N 005.49.57WIN73CJ 4.444km 118°ESE13:00:05ZHelipuerto del HUCA: LEAS 221200Z VRB02KT 9999 FEW015 BKN030 15/11 Q1026 NOSIG=
LEMR 43.25.83N 005.49.60WIN73CK 5.479km 45°NE13:00:04ZAerodromo de la Morgal: LEAS 221200Z VRB02KT 9999 FEW015 BKN030 15/11 Q1026 NOSIG=
LEGM 43.26.15N 005.49.84WIN73CK 5.727km 39°NE13:00:04ZHelipuerto de La Morgal: LEAS 221200Z VRB02KT 9999 FEW015 BKN030 15/11 Q1026 NOSIG=
EA1L 43.20.37N 005.51.13WIN73BI 6.508km 164°SSE13:00:08Zea1l@ure.es V=13.9V,T=??.?C
Wind 026°/005kn, Böen bis 012kn, Temp 17.22c, Regen 0.0mm, letzte 24h 0.0mm, seit 0h 0.0mm, Baro 1023.2h, Hum: 93%(2EA1L-13)
EA1ABW 43.24.77N 005.47.77WIN73CJ 6.636km 73°ENE13:00:43ZMMDVM MMDVM HS Hat 439.8250/439.8250 CC1
EA1HWX 43.19.29N 005.50.96WIN73BH 8.514km 166°SSE13:01:21ZDMO - UHF 439.8250/430.4000 CC11
EA1IPU 43.26.21N 005.46.62WIN73CK 9.144km 60°ENE13:00:08ZMMDVM MMDVM HS Hat 439.8000/439.8000 CC1
ED1ZAY 43.29.47N 005.56.54WIN73AL 11.937km 333°NNW13:03:45ZRD625 438.3000/430.7000 CC1
EA1AHA 43.32.72N 005.54.38WIN73BN 16.834km 351°N13:06:22ZWind 158°/005kn, Böen bis 005kn, Temp 16.11c, Regen 0.0mm, letzte 24h 1.0mm, seit 0h 1.0mm, Baro 1026.7h, Hum: 75%(3EA1AHA-13)
ED1ZAE 43.27.99N 005.40.54WIN73DL 17.898km 64°ENE12:58:02Z2m Voice 145.5875 -0.600 Mhz(3ED1ZAE-C)
WIDE3-3 ESAS3-3 IN73DL WWW.EA1URG.ORG(2ED1ZAE-3)
ED1ZAS 43.27.52N 005.40.17WIN73DL 17.999km 67°ENE13:03:45ZRD985 438.2250/430.6250 CC1
EA1DHE 43.33.98N 005.58.57WIN73AN 20.658km 337°NNW13:03:35ZMMDVM DVS 434.3500/434.3500 CC1
EB1TK 43.32.22N 005.42.32WIN73DM 20.843km 41°NE13:00:39ZEB1TK-6>CQ,TCPIP*,qAC,T2SPAIN2:SatGate - APRS Satellite Traffic and Reporting System (ASTARS)(3EB1TK-6)
Wind 058°/002kn, Böen bis 005kn, Temp 15.00c, Regen 0.0mm, letzte 24h 4.8mm, seit 0h 4.8mm, Baro 1028.6h, Hum: 82%(2EB1TK-13)
EA1FFA 43.31.53N 005.40.64WIN73DM 21.515km 48°NE13:03:01ZMMDVM MMDVM HS Hat 438.8000/438.8000 CC1
EB1AD 43.32.43N 005.41.30WIN73DM 22.051km 43°NE12:50:10ZCarlos(3EB1AD-9)
EA1DZR 43.31.48N 005.40.00WIN73EM 22.089km 49°NE13:03:36ZMMDVM DVS 434.3500/434.3500 CC1
EA1IEJ 43.31.81N 005.40.25WIN73DM 22.252km 48°NE13:02:19ZMMDVM MMDVM HS Hat 438.8500/438.8500 CC6
EA1JBL 43.12.28N 005.47.42WIN73CE 22.305km 162°SSE13:03:22ZMMDVM DVMega 435.3000/435.3000 CC1
LEEL 43.32.98N 005.41.71WIN73DN 22.422km 40°NE13:00:05ZHelipuerto de El Musel: LEAS 221200Z VRB02KT 9999 FEW015 BKN030 15/11 Q1026 NOSIG=
EB1DGC 43.12.60N 005.45.59WIN73CF 22.656km 156°SSE13:02:20ZMMDVM MMDVM HS Hat 433.4500/433.4500 CC1
EA1HWA 43.12.00N 005.47.40WIN73CE 22.829km 162°SSE13:02:33ZMMDVM MMDVM HS Hat 433.4500/433.4500 CC1
EB1GEM 43.30.00N 005.36.07WIN73EM 24.963km 62°ENE13:06:27ZWX3in1Plus2.0 U=13.3V,T=??.?C/??.?F(3EB1GEM-3)
EA1RCG 43.09.45N 005.49.78WIN73CD 26.726km 172°S13:01:43ZGRUPO RADIO GALENA (GRG) 433.4500/433.4500 CC1
EA1HJA 43.28.10N 005.30.45WIN73FL 30.747km 75°ENE13:03:37Z IN73FL WX3IN1+ 2.0 - V=13.5V,TX TEMP=43.8C
EA1HJA@URE.ES(2EA1HJA-2)
ED1ZAD 43.07.90N 005.38.52WIN73ED 34.880km 147°SSE12:57:09ZED1ZAD-3 APRS Digi/Igate(3ED1ZAD-3)
EA1FHR 43.28.72N 005.26.41WIN73GL 36.279km 75°ENE13:02:11ZMMDVM MMDVM HS Hat 439.1500/439.1500 CC1
EB1LA 43.33.82N 006.15.76WIN63UN 36.431km 301°WNW12:53:46Z`_%(3EB1LA-9)
EA1HWD 43.28.96N 005.26.30WIN73GL 36.549km 75°ENE13:01:41Z144.575FM Local frecuency VHF. 434.2500/434.2500 CC1
EC1KV 43.34.01N 006.16.01WIN63UN 36.888km 301°WNW13:05:27Z VOLT.=14.8 V - TEMP.=??.? C(3EC1KV-1)
LETN 43.20.05N 006.22.69WIN63TI 41.255km 261°W13:00:05ZAerodromo de La Curiscada (Tineo): LEAS 221200Z VRB02KT 9999 FEW015 BKN030 15/11 Q1026 NOSIG=

aprs.pl 5.0.011w DL3EL © 2006-2021 [1036730]